createdAt,value
2019-04-26T00:01:44.409Z,13.13
2019-04-26T00:04:14.109Z,11.80
2019-04-26T00:06:42.354Z,13.00
2019-04-26T00:09:19.827Z,12.37
2019-04-26T00:11:49.682Z,12.53
2019-04-26T00:14:36.082Z,13.70
2019-04-26T00:17:15.452Z,13.80
2019-04-26T00:19:44.119Z,12.97
2019-04-26T00:22:13.421Z,12.87
2019-04-26T00:24:42.029Z,18.30
2019-04-26T00:27:11.260Z,17.13
2019-04-26T00:29:40.017Z,14.43
2019-04-26T00:32:08.226Z,12.03
2019-04-26T00:34:36.757Z,13.43
2019-04-26T00:37:05.047Z,18.03
2019-04-26T00:39:33.263Z,14.73
2019-04-26T00:42:02.049Z,13.17
2019-04-26T00:44:30.365Z,11.60
2019-04-26T00:46:58.574Z,12.20
2019-04-26T00:49:27.344Z,11.53
2019-04-26T00:51:56.169Z,11.30
2019-04-26T00:54:25.162Z,11.87
2019-04-26T00:56:54.136Z,13.00
2019-04-26T00:59:22.628Z,13.50
2019-04-26T01:01:53.597Z,14.53
2019-04-26T01:04:23.019Z,15.10
2019-04-26T01:06:53.027Z,15.60
2019-04-26T01:09:21.585Z,15.77
2019-04-26T01:11:50.472Z,14.77
2019-04-26T01:14:18.637Z,13.20
2019-04-26T01:16:47.083Z,15.57
2019-04-26T01:19:17.063Z,15.53
2019-04-26T01:21:47.496Z,16.17
2019-04-26T01:24:16.729Z,15.93
2019-04-26T01:26:45.790Z,13.20
2019-04-26T01:29:14.430Z,10.67
2019-04-26T01:31:47.938Z,11.80
2019-04-26T01:34:16.424Z,12.70
2019-04-26T01:36:44.643Z,16.67
2019-04-26T01:39:19.683Z,16.60
2019-04-26T01:41:51.011Z,13.63
2019-04-26T01:44:24.608Z,14.27
2019-04-26T01:46:53.000Z,13.20
2019-04-26T01:49:22.362Z,12.13
2019-04-26T01:51:52.560Z,11.60
2019-04-26T01:54:23.007Z,13.13
2019-04-26T01:56:51.957Z,12.77
2019-04-26T01:59:20.974Z,12.53
2019-04-26T02:01:54.699Z,12.30
2019-04-26T02:04:26.193Z,12.70
2019-04-26T02:06:54.399Z,11.70
2019-04-26T02:09:24.262Z,13.10
2019-04-26T02:11:52.688Z,12.63
2019-04-26T02:14:21.029Z,12.17
2019-04-26T02:16:49.404Z,12.67
2019-04-26T02:19:17.730Z,12.80
2019-04-26T02:21:59.798Z,13.07
2019-04-26T02:24:30.113Z,11.93
2019-04-26T02:26:59.105Z,15.00
2019-04-26T02:29:28.489Z,16.33
2019-04-26T02:31:57.716Z,18.53
2019-04-26T02:34:27.981Z,17.50
2019-04-26T02:36:58.785Z,15.17
2019-04-26T02:39:29.709Z,14.77
2019-04-26T02:41:59.844Z,14.17
2019-04-26T02:44:31.289Z,12.47
2019-04-26T02:47:03.204Z,12.70
2019-04-26T02:49:35.047Z,13.03
2019-04-26T02:52:07.056Z,13.90
2019-04-26T02:54:45.754Z,12.37
2019-04-26T02:57:18.520Z,13.30
2019-04-26T02:59:46.854Z,12.87
2019-04-26T03:02:23.045Z,12.13
2019-04-26T03:04:52.083Z,13.70
2019-04-26T03:07:22.808Z,16.30
2019-04-26T03:09:51.182Z,14.60
2019-04-26T03:12:19.362Z,14.87
2019-04-26T03:14:53.425Z,13.40
2019-04-26T03:17:26.641Z,18.60
2019-04-26T03:20:04.038Z,19.20
2019-04-26T03:22:50.521Z,14.87
2019-04-26T03:25:22.472Z,15.90
2019-04-26T03:28:11.673Z,14.13
2019-04-26T03:31:00.113Z,12.83
2019-04-26T03:33:46.628Z,11.90
2019-04-26T03:36:13.785Z,14.93
2019-04-26T03:38:51.197Z,15.07
2019-04-26T03:41:28.594Z,14.77
2019-04-26T03:44:04.380Z,15.83
2019-04-26T03:46:35.648Z,15.87
2019-04-26T03:49:05.851Z,15.93
2019-04-26T03:51:37.194Z,15.13
2019-04-26T03:54:09.792Z,17.00
2019-04-26T03:56:42.228Z,15.70
2019-04-26T03:59:17.515Z,17.00
2019-04-26T04:01:54.561Z,18.77
2019-04-26T04:04:25.419Z,17.70
2019-04-26T04:07:03.839Z,17.57
2019-04-26T04:09:24.521Z,18.03
2019-04-26T04:12:10.994Z,17.07
2019-04-26T04:14:37.732Z,16.50
2019-04-26T04:17:17.354Z,16.83
2019-04-26T04:20:03.933Z,15.70
2019-04-26T04:22:33.716Z,15.07
2019-04-26T04:25:04.140Z,15.93
2019-04-26T04:27:34.306Z,20.20
2019-04-26T04:30:05.356Z,25.03
2019-04-26T04:32:52.124Z,23.83
2019-04-26T04:35:21.465Z,23.30
2019-04-26T04:38:04.226Z,24.90
2019-04-26T04:40:47.122Z,27.93
2019-04-26T04:43:18.985Z,28.00
2019-04-26T04:45:53.266Z,25.40
2019-04-26T04:48:30.228Z,26.57
2019-04-26T04:51:06.482Z,26.17
2019-04-26T04:53:51.894Z,24.23
2019-04-26T04:56:36.870Z,27.90
2019-04-26T04:59:11.309Z,28.27
2019-04-26T05:01:52.457Z,28.93
2019-04-26T05:04:24.100Z,27.40
2019-04-26T05:07:04.879Z,24.63
2019-04-26T05:09:34.943Z,24.27
2019-04-26T05:12:06.139Z,23.63
2019-04-26T05:14:48.555Z,18.40
2019-04-26T05:17:18.373Z,18.03
2019-04-26T05:19:48.599Z,15.37
2019-04-26T05:22:35.215Z,14.97
2019-04-26T05:25:15.496Z,13.70
2019-04-26T05:28:06.861Z,12.40
2019-04-26T05:31:11.676Z,10.77
2019-04-26T05:33:41.505Z,10.47
2019-04-26T05:36:28.084Z,9.87
2019-04-26T05:38:58.615Z,10.77
2019-04-26T05:41:36.263Z,11.90
2019-04-26T05:44:10.851Z,11.33
2019-04-26T05:46:47.519Z,12.33
2019-04-26T05:49:30.683Z,11.63
2019-04-26T05:52:21.855Z,11.10
2019-04-26T05:55:11.368Z,10.13
2019-04-26T05:57:42.832Z,9.70
2019-04-26T06:00:29.587Z,9.83
2019-04-26T06:03:35.680Z,9.23
2019-04-26T06:06:22.446Z,10.10
2019-04-26T06:09:13.570Z,9.93
2019-04-26T06:11:48.173Z,11.80
2019-04-26T06:14:43.532Z,14.63
2019-04-26T06:17:17.981Z,15.50
2019-04-26T06:19:55.283Z,14.10
2019-04-26T06:22:31.241Z,13.43
2019-04-26T06:25:05.580Z,13.50
2019-04-26T06:27:40.222Z,12.40
2019-04-26T06:30:10.028Z,12.43
2019-04-26T06:33:00.934Z,9.30
2019-04-26T06:35:22.490Z,8.87
2019-04-26T06:37:59.838Z,5.43
2019-04-26T06:40:41.814Z,5.07
2019-04-26T06:43:08.443Z,3.73
2019-04-26T06:46:14.613Z,3.20
2019-04-26T06:48:46.340Z,3.03
2019-04-26T06:51:24.111Z,2.90
2019-04-26T06:53:47.792Z,2.63
2019-04-26T06:56:35.188Z,3.13
2019-04-26T06:59:35.521Z,3.23
2019-04-26T07:02:07.006Z,2.80
2019-04-26T07:04:53.814Z,4.07
2019-04-26T07:07:40.099Z,3.05
2019-04-26T07:10:27.153Z,3.13
2019-04-26T07:13:21.438Z,3.05
2019-04-26T07:16:21.879Z,3.60
2019-04-26T07:18:39.156Z,3.10
2019-04-26T07:21:24.020Z,2.80
2019-04-26T07:23:55.869Z,3.05
2019-04-26T07:26:42.403Z,3.20
2019-04-26T07:29:17.100Z,3.42
2019-04-26T07:31:49.648Z,3.25
2019-04-26T07:34:43.910Z,3.35
2019-04-26T07:37:29.030Z,3.00
2019-04-26T07:40:13.387Z,3.05
2019-04-26T07:43:13.456Z,2.52
2019-04-26T07:45:50.939Z,3.00
2019-04-26T07:48:37.958Z,3.20
2019-04-26T07:51:11.595Z,3.77
2019-04-26T07:53:41.816Z,2.85
2019-04-26T07:56:23.770Z,3.17
2019-04-26T07:58:53.552Z,3.02
2019-04-26T08:01:51.513Z,3.00
2019-04-26T08:04:22.960Z,2.75
2019-04-26T08:06:55.649Z,3.10
2019-04-26T08:09:27.314Z,2.67
2019-04-26T08:11:57.895Z,2.72
2019-04-26T08:14:35.247Z,3.58
2019-04-26T08:17:08.211Z,2.77
2019-04-26T08:19:38.119Z,3.70
2019-04-26T08:22:18.289Z,3.10
2019-04-26T08:24:36.623Z,3.15
2019-04-26T08:27:18.736Z,2.22
2019-04-26T08:29:40.251Z,2.80
2019-04-26T08:32:11.361Z,2.37
2019-04-26T08:34:40.017Z,3.02
2019-04-26T08:37:10.490Z,2.83
2019-04-26T08:39:45.549Z,2.90
2019-04-26T08:42:18.149Z,2.47
2019-04-26T08:44:43.584Z,2.67
2019-04-26T08:47:18.850Z,2.83
2019-04-26T08:49:45.388Z,2.83
2019-04-26T08:52:14.961Z,2.75
2019-04-26T08:54:45.192Z,2.77
2019-04-26T08:57:13.668Z,2.40
2019-04-26T08:59:45.355Z,2.52
2019-04-26T09:02:25.960Z,2.67
2019-04-26T09:04:56.896Z,2.30
2019-04-26T09:07:28.053Z,2.45
2019-04-26T09:09:57.655Z,2.77
2019-04-26T09:12:28.103Z,2.70
2019-04-26T09:14:57.922Z,2.72
2019-04-26T09:17:27.742Z,2.40
2019-04-26T09:19:58.257Z,2.90
2019-04-26T09:22:34.020Z,2.10
2019-04-26T09:25:16.041Z,2.10
2019-04-26T09:27:46.020Z,2.33
2019-04-26T09:30:33.613Z,2.47
2019-04-26T09:32:58.290Z,2.75
2019-04-26T09:35:27.021Z,2.55
2019-04-26T09:37:55.476Z,2.47
2019-04-26T09:40:23.862Z,2.58
2019-04-26T09:42:56.868Z,2.70
2019-04-26T09:45:29.650Z,3.08
2019-04-26T09:48:15.960Z,2.45
2019-04-26T09:50:45.840Z,2.92
2019-04-26T09:53:14.616Z,2.58
2019-04-26T09:55:43.096Z,2.67
2019-04-26T09:58:11.504Z,3.10
2019-04-26T10:00:39.957Z,2.70
2019-04-26T10:03:10.660Z,3.00
2019-04-26T10:05:39.533Z,3.17
2019-04-26T10:08:08.457Z,2.98
2019-04-26T10:10:38.168Z,3.50
2019-04-26T10:13:20.455Z,3.70
2019-04-26T10:15:50.792Z,3.12
2019-04-26T10:18:24.317Z,3.55
2019-04-26T10:20:51.995Z,3.35
2019-04-26T10:23:20.379Z,3.50
2019-04-26T10:25:52.055Z,4.00
2019-04-26T10:28:19.076Z,3.85
2019-04-26T10:30:47.694Z,3.60
2019-04-26T10:33:16.312Z,4.03
2019-04-26T10:35:44.849Z,3.55
2019-04-26T10:38:13.305Z,3.87
2019-04-26T10:40:41.507Z,3.70
2019-04-26T10:43:11.499Z,3.75
2019-04-26T10:45:39.708Z,3.77
2019-04-26T10:48:09.545Z,4.28
2019-04-26T10:50:37.904Z,4.58
2019-04-26T10:53:16.776Z,4.30
2019-04-26T10:55:55.588Z,3.62
2019-04-26T10:58:25.640Z,4.67
2019-04-26T11:00:55.627Z,4.00
2019-04-26T11:03:24.378Z,4.40
2019-04-26T11:05:53.663Z,4.08
2019-04-26T11:08:22.624Z,4.83
2019-04-26T11:10:50.943Z,4.50
2019-04-26T11:13:19.152Z,4.22
2019-04-26T11:15:47.369Z,5.10
2019-04-26T11:18:19.338Z,4.83
2019-04-26T11:20:46.628Z,4.25
2019-04-26T11:23:16.131Z,4.28
2019-04-26T11:25:44.864Z,4.35
2019-04-26T11:28:13.072Z,4.20
2019-04-26T11:30:41.280Z,4.65
2019-04-26T11:33:11.138Z,4.72
2019-04-26T11:35:39.688Z,4.37
2019-04-26T11:38:07.885Z,5.00
2019-04-26T11:40:36.498Z,4.58
2019-04-26T11:43:05.087Z,3.83
2019-04-26T11:45:33.662Z,5.03
2019-04-26T11:48:03.345Z,4.45
2019-04-26T11:50:31.840Z,4.03
2019-04-26T11:53:00.261Z,4.90
2019-04-26T11:55:29.761Z,4.30
2019-04-26T11:57:58.706Z,4.97
2019-04-26T12:00:29.167Z,4.75
2019-04-26T12:02:57.484Z,4.72
2019-04-26T12:05:36.692Z,3.75
2019-04-26T12:08:06.583Z,4.67
2019-04-26T12:10:34.809Z,4.50
2019-04-26T12:13:05.771Z,4.70
2019-04-26T12:15:33.180Z,4.65
2019-04-26T12:18:01.685Z,5.03
2019-04-26T12:20:29.865Z,4.75
2019-04-26T12:22:58.472Z,4.85
2019-04-26T12:25:27.568Z,4.95
2019-04-26T12:27:56.566Z,4.53
2019-04-26T12:30:26.905Z,4.80
2019-04-26T12:32:56.485Z,4.65
2019-04-26T12:35:24.839Z,4.70
2019-04-26T12:37:54.766Z,4.58
2019-04-26T12:40:23.077Z,4.53
2019-04-26T12:42:51.596Z,5.15
2019-04-26T12:45:30.815Z,5.35
2019-04-26T12:48:00.663Z,5.42
2019-04-26T12:50:29.554Z,5.28
2019-04-26T12:52:59.455Z,5.40
2019-04-26T12:55:28.145Z,4.90
2019-04-26T12:57:56.360Z,5.33
2019-04-26T13:00:26.637Z,5.80
2019-04-26T13:02:55.805Z,5.58
2019-04-26T13:05:24.600Z,5.87
2019-04-26T13:07:54.399Z,4.85
2019-04-26T13:10:24.554Z,5.87
2019-04-26T13:12:57.641Z,4.45
2019-04-26T13:15:29.124Z,5.85
2019-04-26T13:17:57.637Z,5.50
2019-04-26T13:20:28.718Z,5.40
2019-04-26T13:22:56.190Z,6.05
2019-04-26T13:25:26.609Z,5.58
2019-04-26T13:27:55.365Z,6.10
2019-04-26T13:30:32.777Z,6.40
2019-04-26T13:32:54.817Z,6.12
2019-04-26T13:35:23.683Z,6.60
2019-04-26T13:37:51.896Z,6.53
2019-04-26T13:40:20.172Z,6.03
2019-04-26T13:42:51.446Z,6.70
2019-04-26T13:45:35.904Z,7.03
2019-04-26T13:48:14.864Z,6.60
2019-04-26T13:50:44.725Z,7.25
2019-04-26T13:53:13.171Z,6.42
2019-04-26T13:55:41.637Z,7.40
2019-04-26T13:58:09.866Z,6.58
2019-04-26T14:00:39.756Z,7.05
2019-04-26T14:03:08.375Z,5.55
2019-04-26T14:05:36.680Z,7.20
2019-04-26T14:08:05.144Z,6.70
2019-04-26T14:10:33.401Z,6.92
2019-04-26T14:13:01.602Z,6.37
2019-04-26T14:15:29.967Z,6.92
2019-04-26T14:18:00.227Z,6.17
2019-04-26T14:20:29.060Z,7.30
2019-04-26T14:23:02.287Z,6.92
2019-04-26T14:25:48.514Z,7.12
2019-04-26T14:28:20.302Z,6.97
2019-04-26T14:30:49.346Z,6.97
2019-04-26T14:33:17.677Z,6.67
2019-04-26T14:35:46.387Z,6.75
2019-04-26T14:38:27.251Z,5.67
2019-04-26T14:40:45.842Z,6.87
2019-04-26T14:43:18.242Z,6.72
2019-04-26T14:45:55.375Z,5.92
2019-04-26T14:48:20.963Z,6.62
2019-04-26T14:50:45.932Z,7.05
2019-04-26T14:53:14.149Z,6.12
2019-04-26T14:55:42.452Z,6.55
2019-04-26T14:58:12.250Z,5.97
2019-04-26T15:00:43.856Z,6.67
2019-04-26T15:03:17.278Z,6.97
2019-04-26T15:05:51.519Z,7.08
2019-04-26T15:08:20.203Z,7.15
2019-04-26T15:10:52.843Z,7.72
2019-04-26T15:13:20.875Z,6.10
2019-04-26T15:15:49.536Z,6.03
2019-04-26T15:18:17.754Z,6.67
2019-04-26T15:20:46.162Z,7.15
2019-04-26T15:23:14.974Z,5.62
2019-04-26T15:25:48.449Z,5.75
2019-04-26T15:28:14.554Z,6.75
2019-04-26T15:30:46.735Z,7.17
2019-04-26T15:33:15.949Z,6.97
2019-04-26T15:35:45.414Z,6.62
2019-04-26T15:38:13.722Z,7.12
2019-04-26T15:40:58.850Z,6.20
2019-04-26T15:43:34.397Z,7.30
2019-04-26T15:46:12.463Z,7.80
2019-04-26T15:48:59.757Z,7.03
2019-04-26T15:51:29.900Z,6.05
2019-04-26T15:53:58.368Z,6.90
2019-04-26T15:56:27.053Z,6.70
2019-04-26T15:58:56.083Z,7.20
2019-04-26T16:01:25.151Z,6.28
2019-04-26T16:03:55.376Z,7.33
2019-04-26T16:06:23.744Z,7.17
2019-04-26T16:08:52.214Z,6.55
2019-04-26T16:11:20.891Z,6.45
2019-04-26T16:13:54.236Z,7.03
2019-04-26T16:16:27.941Z,7.10
2019-04-26T16:18:57.321Z,6.47
2019-04-26T16:21:26.481Z,6.28
2019-04-26T16:23:55.491Z,5.92
2019-04-26T16:26:24.445Z,6.97
2019-04-26T16:29:03.404Z,7.33
2019-04-26T16:31:34.553Z,7.20
2019-04-26T16:34:10.781Z,6.85
2019-04-26T16:36:43.837Z,7.70
2019-04-26T16:39:10.673Z,8.30
2019-04-26T16:41:39.087Z,9.18
2019-04-26T16:44:07.412Z,8.03
2019-04-26T16:46:35.716Z,7.65
2019-04-26T16:49:06.279Z,8.28
2019-04-26T16:51:34.493Z,10.00
2019-04-26T16:54:07.557Z,9.05
2019-04-26T16:56:35.857Z,7.20
2019-04-26T16:59:03.288Z,8.28
2019-04-26T17:01:32.784Z,10.45
2019-04-26T17:04:04.078Z,10.30
2019-04-26T17:06:31.417Z,9.08
2019-04-26T17:09:04.514Z,9.38
2019-04-26T17:11:30.213Z,9.25
2019-04-26T17:14:04.878Z,9.50
2019-04-26T17:16:34.731Z,10.23
2019-04-26T17:19:00.803Z,7.85
2019-04-26T17:21:34.602Z,8.50
2019-04-26T17:24:13.168Z,8.43
2019-04-26T17:26:43.122Z,7.30
2019-04-26T17:29:13.171Z,7.67
2019-04-26T17:31:43.123Z,7.17
2019-04-26T17:34:12.661Z,8.20
2019-04-26T17:36:41.330Z,8.93
2019-04-26T17:39:16.897Z,8.48
2019-04-26T17:41:43.252Z,9.13
2019-04-26T17:44:13.391Z,8.53
2019-04-26T17:46:41.872Z,8.58
2019-04-26T17:49:11.093Z,8.65
2019-04-26T17:51:43.617Z,7.03
2019-04-26T17:54:26.481Z,7.60
2019-04-26T17:56:41.989Z,8.85
2019-04-26T17:59:13.777Z,37.63
2019-04-26T18:01:47.070Z,15.18
2019-04-26T18:04:11.327Z,22.10
2019-04-26T18:06:40.392Z,14.07
2019-04-26T18:09:08.933Z,16.90
2019-04-26T18:11:37.512Z,13.93
2019-04-26T18:14:08.178Z,13.80
2019-04-26T18:16:38.200Z,15.78
2019-04-26T18:19:08.406Z,20.85
2019-04-26T18:21:56.103Z,21.82
2019-04-26T18:24:20.311Z,24.00
2019-04-26T18:26:52.231Z,24.07
2019-04-26T18:29:18.601Z,24.43
2019-04-26T18:31:46.921Z,22.13
2019-04-26T18:34:15.156Z,22.00
2019-04-26T18:36:44.674Z,23.77
2019-04-26T18:39:13.158Z,25.90
2019-04-26T18:41:41.940Z,21.20
2019-04-26T18:44:10.309Z,21.53
2019-04-26T18:46:53.498Z,24.80
2019-04-26T18:49:26.928Z,26.47
2019-04-26T18:51:55.853Z,27.42
2019-04-26T18:54:25.753Z,27.60
2019-04-26T18:56:56.084Z,26.70
2019-04-26T18:59:27.630Z,24.83
2019-04-26T19:01:56.412Z,23.37
2019-04-26T19:04:25.078Z,21.27
2019-04-26T19:06:53.721Z,21.23
2019-04-26T19:09:25.083Z,21.07
2019-04-26T19:11:55.989Z,18.67
2019-04-26T19:14:25.274Z,17.63
2019-04-26T19:17:02.021Z,19.90
2019-04-26T19:19:38.405Z,16.67
2019-04-26T19:22:09.388Z,19.80
2019-04-26T19:24:38.721Z,20.57
2019-04-26T19:27:07.393Z,15.57
2019-04-26T19:29:36.302Z,16.30
2019-04-26T19:32:05.001Z,15.57
2019-04-26T19:34:34.193Z,15.37
2019-04-26T19:37:03.371Z,17.37
2019-04-26T19:39:35.659Z,18.03
2019-04-26T19:42:06.136Z,19.37
2019-04-26T19:44:34.613Z,22.87
2019-04-26T19:47:13.485Z,26.43
2019-04-26T19:50:03.066Z,24.63
2019-04-26T19:52:45.052Z,21.70
2019-04-26T19:55:32.523Z,20.43
2019-04-26T19:58:02.808Z,21.13
2019-04-26T20:00:32.205Z,21.47
2019-04-26T20:03:01.933Z,18.10
2019-04-26T20:05:31.907Z,18.73
2019-04-26T20:08:02.919Z,17.77
2019-04-26T20:10:34.599Z,17.43
2019-04-26T20:13:02.424Z,18.07
2019-04-26T20:15:31.879Z,19.27
2019-04-26T20:18:03.677Z,18.57
2019-04-26T20:20:34.454Z,20.07
2019-04-26T20:23:05.919Z,17.47
2019-04-26T20:25:31.255Z,18.47
2019-04-26T20:28:00.862Z,22.70
2019-04-26T20:30:51.386Z,20.37
2019-04-26T20:33:19.838Z,36.27
2019-04-26T20:35:48.536Z,25.47
2019-04-26T20:38:17.206Z,24.27
2019-04-26T20:40:47.471Z,24.67
2019-04-26T20:43:24.454Z,25.37
2019-04-26T20:46:07.932Z,23.50
2019-04-26T20:48:17.579Z,21.47
2019-04-26T20:50:46.434Z,22.03
2019-04-26T20:53:15.356Z,20.53
2019-04-26T20:55:43.962Z,19.03
2019-04-26T20:58:12.184Z,20.40
2019-04-26T21:00:53.492Z,18.90
2019-04-26T21:03:22.785Z,20.43
2019-04-26T21:05:46.155Z,20.20
2019-04-26T21:08:12.413Z,20.50
2019-04-26T21:10:41.794Z,23.43
2019-04-26T21:13:12.074Z,22.60
2019-04-26T21:15:53.399Z,15.80
2019-04-26T21:18:12.313Z,15.10
2019-04-26T21:20:42.514Z,12.80
2019-04-26T21:23:13.281Z,11.63
2019-04-26T21:25:58.421Z,12.47
2019-04-26T21:28:45.241Z,11.37
2019-04-26T21:31:15.631Z,10.57
2019-04-26T21:33:48.858Z,13.77
2019-04-26T21:36:22.895Z,13.60
2019-04-26T21:38:59.359Z,14.80
2019-04-26T21:41:33.833Z,13.77
2019-04-26T21:44:03.110Z,13.03
2019-04-26T21:46:33.524Z,13.97
2019-04-26T21:49:03.517Z,14.03
2019-04-26T21:51:33.978Z,15.10
2019-04-26T21:54:03.851Z,12.60
2019-04-26T21:56:33.750Z,13.43
2019-04-26T21:59:03.679Z,15.27
2019-04-26T22:01:33.138Z,13.20
2019-04-26T22:04:03.012Z,19.47
2019-04-26T22:06:33.310Z,82.87
2019-04-26T22:09:05.042Z,33.23
2019-04-26T22:11:33.152Z,41.63
2019-04-26T22:14:06.062Z,36.97
2019-04-26T22:16:53.035Z,33.53
2019-04-26T22:19:27.909Z,16.53
2019-04-26T22:22:04.232Z,18.87
2019-04-26T22:24:40.775Z,16.57
2019-04-26T22:27:09.000Z,18.00
2019-04-26T22:29:37.306Z,18.33
2019-04-26T22:32:05.802Z,18.83
2019-04-26T22:34:37.330Z,17.67
2019-04-26T22:37:11.140Z,16.87
2019-04-26T22:39:39.895Z,17.87
2019-04-26T22:42:04.898Z,18.00
2019-04-26T22:44:46.802Z,18.10
2019-04-26T22:47:19.473Z,17.77
2019-04-26T22:49:47.726Z,15.17
2019-04-26T22:52:16.587Z,13.83
2019-04-26T22:54:46.669Z,15.23
2019-04-26T22:57:16.481Z,17.23
2019-04-26T22:59:49.783Z,33.57
2019-04-26T23:02:18.496Z,27.73
2019-04-26T23:04:47.640Z,23.77
2019-04-26T23:07:18.279Z,24.43
2019-04-26T23:09:51.990Z,22.10
2019-04-26T23:12:27.695Z,18.03
2019-04-26T23:15:03.233Z,16.43
2019-04-26T23:17:43.942Z,16.23
2019-04-26T23:20:20.307Z,14.10
2019-04-26T23:22:48.942Z,13.60
2019-04-26T23:25:17.324Z,13.17
2019-04-26T23:27:45.646Z,14.30
2019-04-26T23:30:15.140Z,17.93
2019-04-26T23:32:43.589Z,18.27
2019-04-26T23:35:13.716Z,17.40
2019-04-26T23:37:42.288Z,19.00
2019-04-26T23:40:10.497Z,17.77
2019-04-26T23:42:39.707Z,16.77
2019-04-26T23:45:10.771Z,15.80
2019-04-26T23:47:38.970Z,15.43
2019-04-26T23:50:07.809Z,17.43
2019-04-26T23:52:36.123Z,17.20
2019-04-26T23:55:07.807Z,17.23
2019-04-26T23:57:36.386Z,16.70
